Weather at Toronto (Sunnybrook Medical Centre) Heliport

Public forecast

Using degrees Celsius for public forecast. Weather courtesy of forecast.io.

Closest aviation weather report (METAR) to Toronto (Sunnybrook Medical Centre) Heliport

Closest report is Billy Bishop Toronto City Centre Airport, 5.7 nm (10.6 km) S.

2024/05/20 00:00 (retrieved 14 minutes ago)

CYTZ 200000Z AUTO 08011G19KT 9SM FEW130 17/15 A2993 RMK SLP137 DENSITY ALT 500FT

Closest aviation forecast (TAF) to Toronto (Sunnybrook Medical Centre) Heliport

Closest forecast is Billy Bishop Toronto City Centre Airport, 5.7 nm (10.6 km) S.

2024/05/19 20:42 (retrieved 4 hours ago)

TAF CYTZ 191940Z 1920/2020 08007KT P6SM SKC FM192100 08010KT P6SM FEW010 BKN050 BECMG 2001/2003 36006KT FM200600 35007KT 6SM BR FEW006 FM201200 35006KT P6SM SKC BECMG 2012/2014 12006KT RMK FCST BASED ON AUTO OBS NXT FCST BY 200200Z